sensor_id;sensor_type;location;lat;lon;timestamp;temperature;humidity
51982;DHT22;37998;53.416;6.730;2023-04-03T00:00:06;4.00;99.90
51982;DHT22;37998;53.416;6.730;2023-04-03T00:02:32;4.00;99.90
51982;DHT22;37998;53.416;6.730;2023-04-03T00:04:58;4.00;99.90
51982;DHT22;37998;53.416;6.730;2023-04-03T00:07:23;3.90;99.90
51982;DHT22;37998;53.416;6.730;2023-04-03T00:09:49;3.90;99.90
51982;DHT22;37998;53.416;6.730;2023-04-03T00:12:15;3.90;99.90
51982;DHT22;37998;53.416;6.730;2023-04-03T00:14:41;3.80;99.90
51982;DHT22;37998;53.416;6.730;2023-04-03T00:17:07;3.80;99.90
51982;DHT22;37998;53.416;6.730;2023-04-03T00:19:32;3.80;99.90
51982;DHT22;37998;53.416;6.730;2023-04-03T00:21:58;3.70;99.90
51982;DHT22;37998;53.416;6.730;2023-04-03T00:24:24;3.70;99.90
51982;DHT22;37998;53.416;6.730;2023-04-03T00:26:50;3.70;99.90
51982;DHT22;37998;53.416;6.730;2023-04-03T00:29:15;3.60;99.90
51982;DHT22;37998;53.416;6.730;2023-04-03T00:31:41;3.60;99.90
51982;DHT22;37998;53.416;6.730;2023-04-03T00:34:07;3.60;99.90
51982;DHT22;37998;53.416;6.730;2023-04-03T00:36:32;3.60;99.90
51982;DHT22;37998;53.416;6.730;2023-04-03T00:38:58;3.50;99.90
51982;DHT22;37998;53.416;6.730;2023-04-03T00:41:23;3.50;99.90
51982;DHT22;37998;53.416;6.730;2023-04-03T00:43:50;3.50;99.90
51982;DHT22;37998;53.416;6.730;2023-04-03T00:46:16;3.50;99.90
51982;DHT22;37998;53.416;6.730;2023-04-03T00:48:44;3.50;99.90
51982;DHT22;37998;53.416;6.730;2023-04-03T00:51:20;3.40;99.90
51982;DHT22;37998;53.416;6.730;2023-04-03T00:53:50;3.40;99.90
51982;DHT22;37998;53.416;6.730;2023-04-03T00:56:18;3.40;99.90
51982;DHT22;37998;53.416;6.730;2023-04-03T00:59:09;3.40;99.90
51982;DHT22;37998;53.416;6.730;2023-04-03T01:01:36;3.30;99.90
51982;DHT22;37998;53.416;6.730;2023-04-03T01:04:03;3.30;99.90
51982;DHT22;37998;53.416;6.730;2023-04-03T01:06:34;3.30;99.90
51982;DHT22;37998;53.416;6.730;2023-04-03T01:09:01;3.30;99.90
51982;DHT22;37998;53.416;6.730;2023-04-03T01:11:26;3.20;99.90
51982;DHT22;37998;53.416;6.730;2023-04-03T01:13:52;3.20;99.90
51982;DHT22;37998;53.416;6.730;2023-04-03T01:16:18;3.20;99.90
51982;DHT22;37998;53.416;6.730;2023-04-03T01:18:45;3.20;99.90
51982;DHT22;37998;53.416;6.730;2023-04-03T01:26:46;3.00;99.90
51982;DHT22;37998;53.416;6.730;2023-04-03T01:29:12;3.00;99.90
51982;DHT22;37998;53.416;6.730;2023-04-03T01:31:44;3.00;99.90
51982;DHT22;37998;53.416;6.730;2023-04-03T01:34:09;3.00;99.90
51982;DHT22;37998;53.416;6.730;2023-04-03T01:36:35;2.90;99.90
51982;DHT22;37998;53.416;6.730;2023-04-03T01:39:01;2.90;99.90
51982;DHT22;37998;53.416;6.730;2023-04-03T01:41:27;2.90;99.90
51982;DHT22;37998;53.416;6.730;2023-04-03T01:43:53;2.80;99.90
51982;DHT22;37998;53.416;6.730;2023-04-03T01:46:19;2.80;99.90
51982;DHT22;37998;53.416;6.730;2023-04-03T01:48:45;2.80;99.90
51982;DHT22;37998;53.416;6.730;2023-04-03T01:51:11;2.80;99.90
51982;DHT22;37998;53.416;6.730;2023-04-03T01:53:37;2.70;99.90
51982;DHT22;37998;53.416;6.730;2023-04-03T01:56:03;2.60;99.90
51982;DHT22;37998;53.416;6.730;2023-04-03T01:58:29;2.70;99.90
51982;DHT22;37998;53.416;6.730;2023-04-03T02:00:55;2.60;99.90
51982;DHT22;37998;53.416;6.730;2023-04-03T02:03:21;2.60;99.90
51982;DHT22;37998;53.416;6.730;2023-04-03T02:05:47;2.60;99.90
51982;DHT22;37998;53.416;6.730;2023-04-03T02:08:13;2.60;99.90
51982;DHT22;37998;53.416;6.730;2023-04-03T02:10:39;2.60;99.90
51982;DHT22;37998;53.416;6.730;2023-04-03T02:13:05;2.60;99.90
51982;DHT22;37998;53.416;6.730;2023-04-03T02:15:30;2.60;99.90
51982;DHT22;37998;53.416;6.730;2023-04-03T02:17:56;2.50;99.90
51982;DHT22;37998;53.416;6.730;2023-04-03T02:20:22;2.50;99.90
51982;DHT22;37998;53.416;6.730;2023-04-03T02:22:48;2.50;99.90
51982;DHT22;37998;53.416;6.730;2023-04-03T02:25:13;2.50;99.90
51982;DHT22;37998;53.416;6.730;2023-04-03T02:27:40;1.30;99.90
51982;DHT22;37998;53.416;6.730;2023-04-03T02:30:06;2.40;99.90
51982;DHT22;37998;53.416;6.730;2023-04-03T02:32:32;2.40;99.90
51982;DHT22;37998;53.416;6.730;2023-04-03T02:34:58;2.40;99.90
51982;DHT22;37998;53.416;6.730;2023-04-03T02:37:24;2.40;99.90
51982;DHT22;37998;53.416;6.730;2023-04-03T02:39:50;2.40;99.90
51982;DHT22;37998;53.416;6.730;2023-04-03T02:42:15;2.40;99.90
51982;DHT22;37998;53.416;6.730;2023-04-03T02:44:41;2.30;99.90
51982;DHT22;37998;53.416;6.730;2023-04-03T02:47:07;2.30;99.90
51982;DHT22;37998;53.416;6.730;2023-04-03T02:49:32;2.30;99.90
51982;DHT22;37998;53.416;6.730;2023-04-03T02:51:58;2.30;99.90
51982;DHT22;37998;53.416;6.730;2023-04-03T02:54:24;2.20;99.90
51982;DHT22;37998;53.416;6.730;2023-04-03T02:56:53;2.30;99.90
51982;DHT22;37998;53.416;6.730;2023-04-03T02:59:18;2.20;99.90
51982;DHT22;37998;53.416;6.730;2023-04-03T03:01:44;2.20;99.90
51982;DHT22;37998;53.416;6.730;2023-04-03T03:04:10;2.20;99.90
51982;DHT22;37998;53.416;6.730;2023-04-03T03:06:35;2.20;99.90
51982;DHT22;37998;53.416;6.730;2023-04-03T03:09:01;2.20;99.90
51982;DHT22;37998;53.416;6.730;2023-04-03T03:11:27;2.20;99.90
51982;DHT22;37998;53.416;6.730;2023-04-03T03:13:52;2.20;99.90
51982;DHT22;37998;53.416;6.730;2023-04-03T03:16:18;2.20;99.90
51982;DHT22;37998;53.416;6.730;2023-04-03T03:18:44;2.20;99.90
51982;DHT22;37998;53.416;6.730;2023-04-03T03:21:10;2.20;99.90
51982;DHT22;37998;53.416;6.730;2023-04-03T03:23:36;2.10;99.90
51982;DHT22;37998;53.416;6.730;2023-04-03T03:26:04;2.10;99.90
51982;DHT22;37998;53.416;6.730;2023-04-03T03:28:31;2.10;99.90
51982;DHT22;37998;53.416;6.730;2023-04-03T03:30:58;2.10;99.90
51982;DHT22;37998;53.416;6.730;2023-04-03T03:33:24;2.10;99.90
51982;DHT22;37998;53.416;6.730;2023-04-03T03:35:51;2.10;99.90
51982;DHT22;37998;53.416;6.730;2023-04-03T03:38:18;2.10;99.90
51982;DHT22;37998;53.416;6.730;2023-04-03T03:40:43;2.10;99.90
51982;DHT22;37998;53.416;6.730;2023-04-03T03:43:09;2.00;99.90
51982;DHT22;37998;53.416;6.730;2023-04-03T03:45:35;2.00;99.90
51982;DHT22;37998;53.416;6.730;2023-04-03T03:48:01;2.00;99.90
51982;DHT22;37998;53.416;6.730;2023-04-03T03:50:27;2.00;99.90
51982;DHT22;37998;53.416;6.730;2023-04-03T03:52:52;2.00;99.90
51982;DHT22;37998;53.416;6.730;2023-04-03T03:55:18;2.10;99.90
51982;DHT22;37998;53.416;6.730;2023-04-03T03:57:44;2.00;99.90
51982;DHT22;37998;53.416;6.730;2023-04-03T04:00:10;2.00;99.90
51982;DHT22;37998;53.416;6.730;2023-04-03T04:02:35;2.00;99.90
51982;DHT22;37998;53.416;6.730;2023-04-03T04:05:01;1.90;99.90
51982;DHT22;37998;53.416;6.730;2023-04-03T04:07:27;1.90;99.90
51982;DHT22;37998;53.416;6.730;2023-04-03T04:09:54;1.90;99.90
51982;DHT22;37998;53.416;6.730;2023-04-03T04:12:20;1.90;99.90
51982;DHT22;37998;53.416;6.730;2023-04-03T04:14:46;1.90;99.90
51982;DHT22;37998;53.416;6.730;2023-04-03T04:17:13;1.80;99.90
51982;DHT22;37998;53.416;6.730;2023-04-03T04:19:38;1.80;99.90
51982;DHT22;37998;53.416;6.730;2023-04-03T04:22:04;1.70;99.90
51982;DHT22;37998;53.416;6.730;2023-04-03T04:24:30;1.70;99.90
51982;DHT22;37998;53.416;6.730;2023-04-03T04:26:55;1.70;99.90
51982;DHT22;37998;53.416;6.730;2023-04-03T04:29:21;1.70;99.90
51982;DHT22;37998;53.416;6.730;2023-04-03T04:31:47;1.60;99.90
51982;DHT22;37998;53.416;6.730;2023-04-03T04:34:12;1.70;99.90
51982;DHT22;37998;53.416;6.730;2023-04-03T04:36:39;1.60;99.90
51982;DHT22;37998;53.416;6.730;2023-04-03T04:39:05;1.70;99.90
51982;DHT22;37998;53.416;6.730;2023-04-03T04:41:31;1.70;99.90
51982;DHT22;37998;53.416;6.730;2023-04-03T04:43:57;0.60;99.90
51982;DHT22;37998;53.416;6.730;2023-04-03T04:46:23;1.60;99.90
51982;DHT22;37998;53.416;6.730;2023-04-03T04:48:48;1.60;99.90
51982;DHT22;37998;53.416;6.730;2023-04-03T04:51:15;1.70;99.90
51982;DHT22;37998;53.416;6.730;2023-04-03T04:53:41;1.60;99.90
51982;DHT22;37998;53.416;6.730;2023-04-03T04:56:06;1.70;99.90
51982;DHT22;37998;53.416;6.730;2023-04-03T04:58:32;1.70;99.90
51982;DHT22;37998;53.416;6.730;2023-04-03T05:01:06;1.70;99.90
51982;DHT22;37998;53.416;6.730;2023-04-03T05:03:32;1.70;99.90
51982;DHT22;37998;53.416;6.730;2023-04-03T05:05:58;1.60;99.90
51982;DHT22;37998;53.416;6.730;2023-04-03T05:08:23;1.70;99.90
51982;DHT22;37998;53.416;6.730;2023-04-03T05:10:49;2.30;99.90
51982;DHT22;37998;53.416;6.730;2023-04-03T05:13:15;1.70;99.90
51982;DHT22;37998;53.416;6.730;2023-04-03T05:15:41;1.70;99.90
51982;DHT22;37998;53.416;6.730;2023-04-03T05:18:06;1.60;99.90
51982;DHT22;37998;53.416;6.730;2023-04-03T05:20:33;1.60;99.90
51982;DHT22;37998;53.416;6.730;2023-04-03T05:22:59;1.70;99.90
51982;DHT22;37998;53.416;6.730;2023-04-03T05:25:25;1.70;99.90
51982;DHT22;37998;53.416;6.730;2023-04-03T05:27:51;1.70;99.90
51982;DHT22;37998;53.416;6.730;2023-04-03T05:30:17;1.60;99.90
51982;DHT22;37998;53.416;6.730;2023-04-03T05:32:42;1.70;99.90
51982;DHT22;37998;53.416;6.730;2023-04-03T05:35:09;1.60;99.90
51982;DHT22;37998;53.416;6.730;2023-04-03T05:37:35;1.60;99.90
51982;DHT22;37998;53.416;6.730;2023-04-03T05:40:01;1.70;99.90
51982;DHT22;37998;53.416;6.730;2023-04-03T05:42:26;1.70;99.90
51982;DHT22;37998;53.416;6.730;2023-04-03T05:44:52;1.70;99.90
51982;DHT22;37998;53.416;6.730;2023-04-03T05:47:19;1.70;99.90
51982;DHT22;37998;53.416;6.730;2023-04-03T05:49:45;1.70;99.90
51982;DHT22;37998;53.416;6.730;2023-04-03T05:52:33;1.70;99.90
51982;DHT22;37998;53.416;6.730;2023-04-03T05:55:00;1.80;99.90
51982;DHT22;37998;53.416;6.730;2023-04-03T05:57:26;1.80;99.90
51982;DHT22;37998;53.416;6.730;2023-04-03T05:59:52;1.80;99.90
51982;DHT22;37998;53.416;6.730;2023-04-03T06:02:23;1.90;99.90
51982;DHT22;37998;53.416;6.730;2023-04-03T06:04:49;1.90;99.90
51982;DHT22;37998;53.416;6.730;2023-04-03T06:07:20;2.00;99.90
51982;DHT22;37998;53.416;6.730;2023-04-03T06:09:49;2.00;99.90
51982;DHT22;37998;53.416;6.730;2023-04-03T06:12:15;2.10;99.90
51982;DHT22;37998;53.416;6.730;2023-04-03T06:14:40;2.10;99.90
51982;DHT22;37998;53.416;6.730;2023-04-03T06:17:07;2.20;99.90
51982;DHT22;37998;53.416;6.730;2023-04-03T06:19:34;2.20;99.90
51982;DHT22;37998;53.416;6.730;2023-04-03T06:22:03;2.30;99.90
51982;DHT22;37998;53.416;6.730;2023-04-03T06:24:30;2.30;99.90
51982;DHT22;37998;53.416;6.730;2023-04-03T06:26:56;2.40;99.90
51982;DHT22;37998;53.416;6.730;2023-04-03T06:29:22;2.40;99.90
51982;DHT22;37998;53.416;6.730;2023-04-03T06:31:49;2.50;99.90
51982;DHT22;37998;53.416;6.730;2023-04-03T06:34:15;2.50;99.90
51982;DHT22;37998;53.416;6.730;2023-04-03T06:36:42;2.50;99.90
51982;DHT22;37998;53.416;6.730;2023-04-03T06:39:20;2.60;99.90
51982;DHT22;37998;53.416;6.730;2023-04-03T06:41:47;2.70;99.90
51982;DHT22;37998;53.416;6.730;2023-04-03T06:44:13;2.70;99.90
51982;DHT22;37998;53.416;6.730;2023-04-03T06:46:42;2.80;99.90
51982;DHT22;37998;53.416;6.730;2023-04-03T06:49:08;2.90;99.90
51982;DHT22;37998;53.416;6.730;2023-04-03T06:51:35;2.90;99.90
51982;DHT22;37998;53.416;6.730;2023-04-03T06:54:03;2.90;99.90
51982;DHT22;37998;53.416;6.730;2023-04-03T06:56:29;3.00;99.90
51982;DHT22;37998;53.416;6.730;2023-04-03T06:58:55;3.10;99.90
51982;DHT22;37998;53.416;6.730;2023-04-03T07:01:25;3.10;99.90
51982;DHT22;37998;53.416;6.730;2023-04-03T07:03:51;3.20;99.90
51982;DHT22;37998;53.416;6.730;2023-04-03T07:06:20;3.20;99.90
51982;DHT22;37998;53.416;6.730;2023-04-03T07:08:46;3.30;99.90
51982;DHT22;37998;53.416;6.730;2023-04-03T07:11:14;3.30;99.90
51982;DHT22;37998;53.416;6.730;2023-04-03T07:13:40;3.30;99.90
51982;DHT22;37998;53.416;6.730;2023-04-03T07:16:06;3.30;99.90
51982;DHT22;37998;53.416;6.730;2023-04-03T07:18:32;3.40;99.90
51982;DHT22;37998;53.416;6.730;2023-04-03T07:20:58;3.50;99.90
51982;DHT22;37998;53.416;6.730;2023-04-03T07:23:24;3.50;99.90
51982;DHT22;37998;53.416;6.730;2023-04-03T07:25:51;3.70;99.90
51982;DHT22;37998;53.416;6.730;2023-04-03T07:28:18;4.30;99.90
51982;DHT22;37998;53.416;6.730;2023-04-03T07:30:45;4.70;99.90
51982;DHT22;37998;53.416;6.730;2023-04-03T07:33:13;4.90;99.90
51982;DHT22;37998;53.416;6.730;2023-04-03T07:35:40;4.80;99.90
51982;DHT22;37998;53.416;6.730;2023-04-03T07:38:06;4.80;99.90
51982;DHT22;37998;53.416;6.730;2023-04-03T07:40:32;4.70;99.90
51982;DHT22;37998;53.416;6.730;2023-04-03T07:42:58;4.80;99.90
51982;DHT22;37998;53.416;6.730;2023-04-03T07:45:25;4.80;99.90
51982;DHT22;37998;53.416;6.730;2023-04-03T07:47:51;4.80;99.90
51982;DHT22;37998;53.416;6.730;2023-04-03T07:50:17;4.80;99.90
51982;DHT22;37998;53.416;6.730;2023-04-03T07:52:44;4.90;99.90
51982;DHT22;37998;53.416;6.730;2023-04-03T07:55:09;4.90;99.90
51982;DHT22;37998;53.416;6.730;2023-04-03T07:57:35;4.90;99.90
51982;DHT22;37998;53.416;6.730;2023-04-03T08:00:03;5.00;99.90
51982;DHT22;37998;53.416;6.730;2023-04-03T08:02:30;5.00;99.90
51982;DHT22;37998;53.416;6.730;2023-04-03T08:04:57;5.10;99.90
51982;DHT22;37998;53.416;6.730;2023-04-03T08:07:23;5.20;99.90
51982;DHT22;37998;53.416;6.730;2023-04-03T08:09:49;5.30;99.90
51982;DHT22;37998;53.416;6.730;2023-04-03T08:12:14;5.30;99.90
51982;DHT22;37998;53.416;6.730;2023-04-03T08:14:40;5.30;99.90
51982;DHT22;37998;53.416;6.730;2023-04-03T08:17:06;5.40;99.90
51982;DHT22;37998;53.416;6.730;2023-04-03T08:19:35;5.50;99.90
51982;DHT22;37998;53.416;6.730;2023-04-03T08:22:00;5.60;99.90
51982;DHT22;37998;53.416;6.730;2023-04-03T08:24:28;5.60;99.90
51982;DHT22;37998;53.416;6.730;2023-04-03T08:26:54;5.80;99.90
51982;DHT22;37998;53.416;6.730;2023-04-03T08:29:20;5.90;99.90
51982;DHT22;37998;53.416;6.730;2023-04-03T08:31:47;5.90;99.90
51982;DHT22;37998;53.416;6.730;2023-04-03T08:34:13;6.10;99.90
51982;DHT22;37998;53.416;6.730;2023-04-03T08:36:39;6.40;99.90
51982;DHT22;37998;53.416;6.730;2023-04-03T08:39:05;6.70;99.90
51982;DHT22;37998;53.416;6.730;2023-04-03T08:41:40;6.90;99.90
51982;DHT22;37998;53.416;6.730;2023-04-03T08:49:30;7.10;99.90
51982;DHT22;37998;53.416;6.730;2023-04-03T08:51:59;6.80;99.90
51982;DHT22;37998;53.416;6.730;2023-04-03T08:56:55;6.50;99.90
51982;DHT22;37998;53.416;6.730;2023-04-03T08:59:34;6.50;99.90
51982;DHT22;37998;53.416;6.730;2023-04-03T09:02:02;6.50;99.90
51982;DHT22;37998;53.416;6.730;2023-04-03T09:04:31;6.70;99.90
51982;DHT22;37998;53.416;6.730;2023-04-03T09:07:05;6.60;99.90
51982;DHT22;37998;53.416;6.730;2023-04-03T09:09:38;6.70;99.90
51982;DHT22;37998;53.416;6.730;2023-04-03T09:12:25;6.70;99.90
51982;DHT22;37998;53.416;6.730;2023-04-03T09:17:45;6.90;99.90
51982;DHT22;37998;53.416;6.730;2023-04-03T09:22:55;7.10;99.90
51982;DHT22;37998;53.416;6.730;2023-04-03T09:25:23;7.10;99.20
51982;DHT22;37998;53.416;6.730;2023-04-03T09:27:52;7.10;98.80
51982;DHT22;37998;53.416;6.730;2023-04-03T09:30:20;7.10;98.80
51982;DHT22;37998;53.416;6.730;2023-04-03T09:32:48;7.10;98.10
51982;DHT22;37998;53.416;6.730;2023-04-03T09:35:43;7.20;97.90
51982;DHT22;37998;53.416;6.730;2023-04-03T09:43:29;7.40;96.20
51982;DHT22;37998;53.416;6.730;2023-04-03T09:46:16;7.40;96.50
51982;DHT22;37998;53.416;6.730;2023-04-03T09:48:51;7.40;95.70
51982;DHT22;37998;53.416;6.730;2023-04-03T09:51:17;7.50;94.90
51982;DHT22;37998;53.416;6.730;2023-04-03T09:53:44;7.60;94.60
51982;DHT22;37998;53.416;6.730;2023-04-03T09:59:05;7.70;91.50
51982;DHT22;37998;53.416;6.730;2023-04-03T10:01:38;7.70;91.60
51982;DHT22;37998;53.416;6.730;2023-04-03T10:04:09;7.80;87.40
51982;DHT22;37998;53.416;6.730;2023-04-03T10:06:50;7.80;87.60
51982;DHT22;37998;53.416;6.730;2023-04-03T10:09:21;7.80;88.60
51982;DHT22;37998;53.416;6.730;2023-04-03T10:12:09;7.80;89.80
51982;DHT22;37998;53.416;6.730;2023-04-03T10:14:54;7.90;89.20
51982;DHT22;37998;53.416;6.730;2023-04-03T10:17:57;7.80;90.10
51982;DHT22;37998;53.416;6.730;2023-04-03T10:28:35;8.30;91.40
51982;DHT22;37998;53.416;6.730;2023-04-03T10:37:19;8.20;91.30
51982;DHT22;37998;53.416;6.730;2023-04-03T10:39:59;8.30;90.80
51982;DHT22;37998;53.416;6.730;2023-04-03T10:47:39;8.50;90.90
51982;DHT22;37998;53.416;6.730;2023-04-03T10:58:52;8.80;87.70
51982;DHT22;37998;53.416;6.730;2023-04-03T11:01:26;8.80;88.60
51982;DHT22;37998;53.416;6.730;2023-04-03T11:03:58;8.90;87.70
51982;DHT22;37998;53.416;6.730;2023-04-03T11:06:26;9.00;86.60
51982;DHT22;37998;53.416;6.730;2023-04-03T11:09:00;9.00;86.20
51982;DHT22;37998;53.416;6.730;2023-04-03T11:11:34;8.80;84.90
51982;DHT22;37998;53.416;6.730;2023-04-03T11:17:01;9.00;84.40
51982;DHT22;37998;53.416;6.730;2023-04-03T11:22:29;9.20;85.50
51982;DHT22;37998;53.416;6.730;2023-04-03T11:30:45;9.30;83.20
51982;DHT22;37998;53.416;6.730;2023-04-03T11:38:41;9.40;83.50
51982;DHT22;37998;53.416;6.730;2023-04-03T11:41:09;9.40;82.70
51982;DHT22;37998;53.416;6.730;2023-04-03T11:43:42;9.50;82.60
51982;DHT22;37998;53.416;6.730;2023-04-03T11:46:09;9.70;82.20
51982;DHT22;37998;53.416;6.730;2023-04-03T11:51:03;9.80;82.50
51982;DHT22;37998;53.416;6.730;2023-04-03T11:53:48;9.90;82.20
51982;DHT22;37998;53.416;6.730;2023-04-03T12:01:55;10.00;80.40
51982;DHT22;37998;53.416;6.730;2023-04-03T12:04:26;10.00;81.40
51982;DHT22;37998;53.416;6.730;2023-04-03T12:06:59;9.40;82.10
51982;DHT22;37998;53.416;6.730;2023-04-03T12:09:27;8.90;82.50
51982;DHT22;37998;53.416;6.730;2023-04-03T12:11:54;8.70;83.80
51982;DHT22;37998;53.416;6.730;2023-04-03T12:14:22;7.80;84.40
51982;DHT22;37998;53.416;6.730;2023-04-03T12:16:49;8.50;86.40
51982;DHT22;37998;53.416;6.730;2023-04-03T12:19:38;8.40;87.50
51982;DHT22;37998;53.416;6.730;2023-04-03T12:22:14;8.40;87.90
51982;DHT22;37998;53.416;6.730;2023-04-03T12:24:42;8.40;88.60
51982;DHT22;37998;53.416;6.730;2023-04-03T12:27:32;8.30;87.70
51982;DHT22;37998;53.416;6.730;2023-04-03T12:30:13;8.20;88.00
51982;DHT22;37998;53.416;6.730;2023-04-03T12:32:48;8.10;88.70
51982;DHT22;37998;53.416;6.730;2023-04-03T12:35:37;8.10;88.80
51982;DHT22;37998;53.416;6.730;2023-04-03T12:41:31;8.20;89.30
51982;DHT22;37998;53.416;6.730;2023-04-03T12:44:22;8.10;85.70
51982;DHT22;37998;53.416;6.730;2023-04-03T12:46:51;8.10;86.20
51982;DHT22;37998;53.416;6.730;2023-04-03T12:49:24;8.10;86.90
51982;DHT22;37998;53.416;6.730;2023-04-03T12:51:52;8.10;87.10
51982;DHT22;37998;53.416;6.730;2023-04-03T12:54:32;8.10;87.70
51982;DHT22;37998;53.416;6.730;2023-04-03T12:57:13;8.10;87.60
51982;DHT22;37998;53.416;6.730;2023-04-03T12:59:41;8.20;87.60
51982;DHT22;37998;53.416;6.730;2023-04-03T13:02:27;8.20;87.60
51982;DHT22;37998;53.416;6.730;2023-04-03T13:04:56;8.20;88.20
51982;DHT22;37998;53.416;6.730;2023-04-03T13:07:30;8.20;88.80
51982;DHT22;37998;53.416;6.730;2023-04-03T13:10:18;8.10;90.20
51982;DHT22;37998;53.416;6.730;2023-04-03T13:12:50;8.10;90.70
51982;DHT22;37998;53.416;6.730;2023-04-03T13:15:24;8.10;90.60
51982;DHT22;37998;53.416;6.730;2023-04-03T13:17:52;8.00;91.10
51982;DHT22;37998;53.416;6.730;2023-04-03T13:20:27;8.00;89.70
51982;DHT22;37998;53.416;6.730;2023-04-03T13:23:00;8.00;86.50
51982;DHT22;37998;53.416;6.730;2023-04-03T13:25:29;8.00;88.00
51982;DHT22;37998;53.416;6.730;2023-04-03T13:27:56;8.10;88.60
51982;DHT22;37998;53.416;6.730;2023-04-03T13:30:27;8.10;88.40
51982;DHT22;37998;53.416;6.730;2023-04-03T13:32:55;8.00;89.60
51982;DHT22;37998;53.416;6.730;2023-04-03T13:35:31;8.10;89.80
51982;DHT22;37998;53.416;6.730;2023-04-03T13:38:00;8.10;89.80
51982;DHT22;37998;53.416;6.730;2023-04-03T13:40:26;8.20;90.20
51982;DHT22;37998;53.416;6.730;2023-04-03T13:43:16;8.20;89.60
51982;DHT22;37998;53.416;6.730;2023-04-03T13:45:59;8.20;90.10
51982;DHT22;37998;53.416;6.730;2023-04-03T13:48:25;8.20;90.50
51982;DHT22;37998;53.416;6.730;2023-04-03T13:53:20;8.30;91.00
51982;DHT22;37998;53.416;6.730;2023-04-03T13:56:08;8.30;91.00
51982;DHT22;37998;53.416;6.730;2023-04-03T13:58:35;8.30;90.70
51982;DHT22;37998;53.416;6.730;2023-04-03T14:03:59;8.40;90.70
51982;DHT22;37998;53.416;6.730;2023-04-03T14:06:26;8.40;90.60
51982;DHT22;37998;53.416;6.730;2023-04-03T14:08:53;8.30;90.20
51982;DHT22;37998;53.416;6.730;2023-04-03T14:11:29;8.40;90.40
51982;DHT22;37998;53.416;6.730;2023-04-03T14:13:58;8.40;89.60
51982;DHT22;37998;53.416;6.730;2023-04-03T14:16:28;8.40;89.30
51982;DHT22;37998;53.416;6.730;2023-04-03T14:18:55;8.40;88.70
51982;DHT22;37998;53.416;6.730;2023-04-03T14:21:20;8.40;88.20
51982;DHT22;37998;53.416;6.730;2023-04-03T14:23:47;8.40;85.70
51982;DHT22;37998;53.416;6.730;2023-04-03T14:26:16;8.40;86.20
51982;DHT22;37998;53.416;6.730;2023-04-03T14:28:43;8.40;84.70
51982;DHT22;37998;53.416;6.730;2023-04-03T14:31:11;8.50;84.90
51982;DHT22;37998;53.416;6.730;2023-04-03T14:33:37;8.50;83.20
51982;DHT22;37998;53.416;6.730;2023-04-03T14:36:18;8.50;82.40
51982;DHT22;37998;53.416;6.730;2023-04-03T14:38:45;8.50;82.00
51982;DHT22;37998;53.416;6.730;2023-04-03T14:41:19;8.40;80.90
51982;DHT22;37998;53.416;6.730;2023-04-03T14:43:46;8.40;80.10
51982;DHT22;37998;53.416;6.730;2023-04-03T14:46:26;8.40;81.70
51982;DHT22;37998;53.416;6.730;2023-04-03T14:48:53;8.30;81.90
51982;DHT22;37998;53.416;6.730;2023-04-03T14:51:18;8.30;82.50
51982;DHT22;37998;53.416;6.730;2023-04-03T14:53:45;8.30;81.70
51982;DHT22;37998;53.416;6.730;2023-04-03T14:56:18;8.20;82.60
51982;DHT22;37998;53.416;6.730;2023-04-03T14:58:44;8.30;82.60
51982;DHT22;37998;53.416;6.730;2023-04-03T15:01:13;8.20;82.50
51982;DHT22;37998;53.416;6.730;2023-04-03T15:03:39;8.20;83.20
51982;DHT22;37998;53.416;6.730;2023-04-03T15:06:05;8.20;84.00
51982;DHT22;37998;53.416;6.730;2023-04-03T15:08:31;8.20;84.60
51982;DHT22;37998;53.416;6.730;2023-04-03T15:10:57;8.10;85.70
51982;DHT22;37998;53.416;6.730;2023-04-03T15:13:24;8.10;87.20
51982;DHT22;37998;53.416;6.730;2023-04-03T15:15:50;8.10;87.80
51982;DHT22;37998;53.416;6.730;2023-04-03T15:18:25;8.10;88.10
51982;DHT22;37998;53.416;6.730;2023-04-03T15:20:52;8.00;90.00
51982;DHT22;37998;53.416;6.730;2023-04-03T15:23:18;8.00;88.10
51982;DHT22;37998;53.416;6.730;2023-04-03T15:25:46;8.00;88.80
51982;DHT22;37998;53.416;6.730;2023-04-03T15:28:38;8.00;90.10
51982;DHT22;37998;53.416;6.730;2023-04-03T15:31:04;7.90;90.60
51982;DHT22;37998;53.416;6.730;2023-04-03T15:33:30;7.90;90.60
51982;DHT22;37998;53.416;6.730;2023-04-03T15:35:56;7.90;90.50
51982;DHT22;37998;53.416;6.730;2023-04-03T15:38:22;7.90;90.50
51982;DHT22;37998;53.416;6.730;2023-04-03T15:40:48;7.90;90.50
51982;DHT22;37998;53.416;6.730;2023-04-03T15:43:14;7.80;90.20
51982;DHT22;37998;53.416;6.730;2023-04-03T15:45:40;7.80;90.40
51982;DHT22;37998;53.416;6.730;2023-04-03T15:48:07;7.90;90.90
51982;DHT22;37998;53.416;6.730;2023-04-03T15:50:33;7.80;90.40
51982;DHT22;37998;53.416;6.730;2023-04-03T15:53:00;7.80;90.60
51982;DHT22;37998;53.416;6.730;2023-04-03T15:55:28;7.70;90.80
51982;DHT22;37998;53.416;6.730;2023-04-03T15:57:55;7.70;91.10
51982;DHT22;37998;53.416;6.730;2023-04-03T16:00:21;7.60;91.20
51982;DHT22;37998;53.416;6.730;2023-04-03T16:02:50;7.60;91.10
51982;DHT22;37998;53.416;6.730;2023-04-03T16:05:18;7.60;91.20
51982;DHT22;37998;53.416;6.730;2023-04-03T16:07:44;7.60;91.50
51982;DHT22;37998;53.416;6.730;2023-04-03T16:10:11;7.60;91.70
51982;DHT22;37998;53.416;6.730;2023-04-03T16:12:37;7.60;92.00
51982;DHT22;37998;53.416;6.730;2023-04-03T16:15:04;7.50;91.80
51982;DHT22;37998;53.416;6.730;2023-04-03T16:17:31;7.50;92.10
51982;DHT22;37998;53.416;6.730;2023-04-03T16:19:57;7.50;92.10
51982;DHT22;37998;53.416;6.730;2023-04-03T16:22:25;7.50;92.30
51982;DHT22;37998;53.416;6.730;2023-04-03T16:24:51;7.40;92.60
51982;DHT22;37998;53.416;6.730;2023-04-03T16:27:17;7.50;92.70
51982;DHT22;37998;53.416;6.730;2023-04-03T16:29:42;7.40;93.10
51982;DHT22;37998;53.416;6.730;2023-04-03T16:32:08;7.30;92.80
51982;DHT22;37998;53.416;6.730;2023-04-03T16:34:34;7.30;92.90
51982;DHT22;37998;53.416;6.730;2023-04-03T16:37:00;7.30;93.30
51982;DHT22;37998;53.416;6.730;2023-04-03T16:39:26;7.40;93.10
51982;DHT22;37998;53.416;6.730;2023-04-03T16:41:52;7.20;93.40
51982;DHT22;37998;53.416;6.730;2023-04-03T16:44:18;7.10;93.20
51982;DHT22;37998;53.416;6.730;2023-04-03T16:46:44;7.10;93.10
51982;DHT22;37998;53.416;6.730;2023-04-03T16:49:10;7.10;93.40
51982;DHT22;37998;53.416;6.730;2023-04-03T16:51:35;7.10;93.60
51982;DHT22;37998;53.416;6.730;2023-04-03T16:54:01;7.10;93.90
51982;DHT22;37998;53.416;6.730;2023-04-03T16:56:26;7.10;94.50
51982;DHT22;37998;53.416;6.730;2023-04-03T16:58:53;7.00;94.20
51982;DHT22;37998;53.416;6.730;2023-04-03T17:01:20;7.10;94.50
51982;DHT22;37998;53.416;6.730;2023-04-03T17:03:45;7.00;94.90
51982;DHT22;37998;53.416;6.730;2023-04-03T17:06:15;7.00;95.30
51982;DHT22;37998;53.416;6.730;2023-04-03T17:08:42;6.90;95.70
51982;DHT22;37998;53.416;6.730;2023-04-03T17:11:08;6.90;95.80
51982;DHT22;37998;53.416;6.730;2023-04-03T17:13:34;6.90;95.80
51982;DHT22;37998;53.416;6.730;2023-04-03T17:16:02;6.80;95.90
51982;DHT22;37998;53.416;6.730;2023-04-03T17:18:31;6.80;96.10
51982;DHT22;37998;53.416;6.730;2023-04-03T17:20:57;6.80;96.40